Portada
METAR-TAF:

METAR-TAF

Aeropuertos :

Ghriss, Argelia

latitud: 35-12N, longitud: 000-08E, altitud: 514 m

Observación

El informe se hizo hace 2 horas y 58 minutos, a las 12:00 UTC
Viento 3 kt del noroeste
Temperatura 26°C
Humedad 34%
Presión 1019 hPa
Visibilidad 10 km o más
Escasas nubes a una altura de 2600 ft

METAR: DAOV 201200Z 32003KT 9999 FEW026 26/09 Q1019

Hora: 15:58 (14:58 UTC)

Pronóstico

El informe se hizo hace 3 horas y 58 minutos, a las 11:00 UTC
Pronóstico válido del 20 a las 12 UTC al 20 a las 21 UTC
Viento 2 kt con dirección variable
Visibilidad 10 km o más
Escasas nubes a una altura de 2600 ft
Evolucionando progresivamente
del 20 a las 13 UTC al 20 a las 15 UTC
Viento 10 kt del noroeste

TAF: DAOV 201100Z 2012/2021 VRB02KT 9999 FEW026 BECMG 2013/2015 32010KT

Observaciones y pronósticos meteorológicos de más de 4000 aeropuertos (mensajes METAR y TAF).

Los puntos amarillos y rojos representan las estaciones disponibles.

Ponga el ratón en el punto deseado para ver el nombre de la estación.

Haga clic para ver las observaciones y los pronósticos meteorológicos.

Para cambiar el mapa : haga clic en los botones verdes con una cruz de color negro para hacer un zoom, en el botón verde con un guión para alejar o en las flechas verdes para mapas adyacentes.


METAR-TAF: